Marionville, Missouri
Current Conditions -  °F | °C
As of 9:52 AM on Saturday 25 Oct 2014 (Local Time) from KSGF Reporting Station
Clear Clear  
Wind Chill: 69°   Ceiling: Unl
Heat Index: 69°   Visibility: 10mi
Dew Point: 60°   Wind: 9mph
Humidity: 73%   Direction: 260°W
Pressure: 30.09"   Gusts: NA
Location:  37°N, 93.64°W
Report Text: KSGF 251452Z 26008KT 10SM CLR 21/16 A3009 RMK AO2 SLP181 T02060156 50009
Loading
Personal Weather Stations






























Interactive Weather Map
Tropical Storm Tracking
New forecast layout! Learn more

10-Day Weather Forecast

Advertisements
Track Severe Weather on mobile